createdAt,value
2018-08-16T00:01:45.943Z,81.65
2018-08-16T00:04:21.519Z,81.84
2018-08-16T00:06:51.276Z,81.81
2018-08-16T00:09:28.561Z,82.12
2018-08-16T00:11:58.685Z,82.52
2018-08-16T00:14:28.261Z,82.40
2018-08-16T00:16:58.878Z,82.79
2018-08-16T00:19:33.680Z,83.30
2018-08-16T00:22:03.299Z,83.09
2018-08-16T00:24:34.600Z,83.29
2018-08-16T00:30:02.735Z,83.24
2018-08-16T00:32:32.843Z,83.69
2018-08-16T00:35:03.864Z,83.50
2018-08-16T00:37:37.541Z,83.45
2018-08-16T00:40:13.641Z,83.90
2018-08-16T00:43:13.951Z,84.08
2018-08-16T00:46:04.202Z,84.47
2018-08-16T00:52:40.796Z,84.96
2018-08-16T00:55:11.744Z,84.38
2018-08-16T00:57:43.478Z,84.99
2018-08-16T01:00:16.592Z,85.28
2018-08-16T01:02:47.121Z,85.34
2018-08-16T01:05:18.581Z,84.86
2018-08-16T01:07:49.713Z,84.70
2018-08-16T01:10:45.982Z,84.51
2018-08-16T01:13:23.323Z,84.58
2018-08-16T01:15:54.353Z,84.61
2018-08-16T01:18:26.892Z,85.10
2018-08-16T01:20:56.805Z,85.32
2018-08-16T01:23:33.013Z,85.28
2018-08-16T01:26:02.881Z,85.29
2018-08-16T01:28:46.994Z,85.48
2018-08-16T01:31:29.391Z,85.48
2018-08-16T01:34:01.785Z,85.47
2018-08-16T01:36:38.095Z,85.30
2018-08-16T01:39:11.466Z,85.44
2018-08-16T01:41:42.067Z,85.94
2018-08-16T01:44:17.192Z,85.46
2018-08-16T01:51:01.724Z,85.02
2018-08-16T01:53:34.045Z,84.93
2018-08-16T01:56:06.612Z,85.04
2018-08-16T02:01:22.649Z,85.15
2018-08-16T03:23:58.586Z,88.70
2018-08-16T03:33:12.397Z,88.97
2018-08-16T03:38:51.184Z,90.00
2018-08-16T03:41:21.674Z,90.11
2018-08-16T03:43:51.449Z,89.76
2018-08-16T03:46:43.882Z,89.63
2018-08-16T03:49:13.570Z,89.07
2018-08-16T03:51:43.505Z,88.71
2018-08-16T03:54:23.009Z,89.22
2018-08-16T03:59:56.515Z,89.02
2018-08-16T04:06:09.222Z,89.06
2018-08-16T04:08:47.091Z,88.79
2018-08-16T04:11:17.231Z,88.53
2018-08-16T04:13:47.143Z,88.71
2018-08-16T04:16:19.231Z,88.93
2018-08-16T04:18:49.358Z,88.53
2018-08-16T04:21:22.156Z,88.81
2018-08-16T04:23:57.498Z,88.61
2018-08-16T04:26:29.188Z,89.08
2018-08-16T04:31:53.328Z,89.13
2018-08-16T04:34:45.177Z,88.95
2018-08-16T04:37:15.428Z,88.78
2018-08-16T04:39:46.275Z,89.16
2018-08-16T04:42:20.339Z,88.66
2018-08-16T04:50:23.036Z,88.96
2018-08-16T04:52:53.611Z,87.98
2018-08-16T04:55:25.047Z,87.70
2018-08-16T04:57:56.697Z,87.96
2018-08-16T05:00:26.860Z,88.18
2018-08-16T05:02:56.958Z,87.94
2018-08-16T05:05:28.112Z,88.16
2018-08-16T05:07:58.104Z,87.92
2018-08-16T05:10:34.548Z,88.12
2018-08-16T05:13:05.069Z,87.88
2018-08-16T05:15:36.568Z,87.43
2018-08-16T05:18:07.709Z,87.24
2018-08-16T05:20:41.363Z,87.17
2018-08-16T05:23:13.948Z,87.04
2018-08-16T05:25:49.075Z,86.82
2018-08-16T05:28:20.084Z,86.23
2018-08-16T05:30:51.602Z,85.89
2018-08-16T05:33:23.900Z,85.40
2018-08-16T05:35:55.293Z,85.37
2018-08-16T05:38:29.642Z,85.01
2018-08-16T05:40:59.873Z,84.69
2018-08-16T05:43:29.898Z,84.49
2018-08-16T05:45:59.598Z,84.02
2018-08-16T05:48:29.544Z,83.52
2018-08-16T05:50:59.327Z,83.78
2018-08-16T05:53:31.433Z,82.76
2018-08-16T05:56:01.058Z,82.18
2018-08-16T05:58:31.544Z,82.14
2018-08-16T06:01:01.403Z,81.56
2018-08-16T06:03:37.127Z,81.12
2018-08-16T06:06:07.963Z,80.72
2018-08-16T06:08:38.304Z,79.75
2018-08-16T06:11:09.075Z,79.53
2018-08-16T06:13:40.205Z,78.49
2018-08-16T06:16:09.880Z,78.55
2018-08-16T06:18:42.516Z,77.94
2018-08-16T06:21:12.327Z,77.15
2018-08-16T06:23:42.201Z,77.26
2018-08-16T06:26:11.947Z,76.75
2018-08-16T06:28:41.700Z,75.01
2018-08-16T06:31:11.649Z,74.71
2018-08-16T06:33:42.305Z,73.76
2018-08-16T06:36:11.910Z,73.13
2018-08-16T06:38:41.978Z,72.45
2018-08-16T06:41:12.276Z,72.14
2018-08-16T06:43:41.964Z,72.02
2018-08-16T06:46:12.782Z,71.09
2018-08-16T06:48:42.657Z,69.86
2018-08-16T06:51:12.436Z,69.72
2018-08-16T06:53:42.382Z,68.56
2018-08-16T06:56:12.816Z,68.63
2018-08-16T06:58:42.492Z,67.81
2018-08-16T07:01:12.197Z,66.66
2018-08-16T07:04:35.455Z,65.96
2018-08-16T07:07:06.945Z,66.37
2018-08-16T07:09:36.863Z,67.61
2018-08-16T07:12:09.571Z,66.01
2018-08-16T07:14:39.715Z,64.42
2018-08-16T07:17:10.165Z,63.92
2018-08-16T07:19:39.978Z,63.59
2018-08-16T07:22:12.576Z,63.74
2018-08-16T07:24:42.210Z,62.28
2018-08-16T07:27:12.103Z,61.36
2018-08-16T07:29:43.499Z,60.97
2018-08-16T07:32:13.369Z,60.48
2018-08-16T07:34:42.976Z,60.32
2018-08-16T07:37:14.189Z,59.88
2018-08-16T07:39:44.325Z,58.86
2018-08-16T07:42:13.936Z,58.20
2018-08-16T07:44:43.571Z,57.45
2018-08-16T07:47:14.787Z,56.24
2018-08-16T07:49:44.632Z,56.03
2018-08-16T07:52:14.524Z,54.62
2018-08-16T07:54:44.151Z,54.74
2018-08-16T07:57:13.981Z,53.79
2018-08-16T07:59:44.768Z,53.10
2018-08-16T08:02:16.132Z,51.99
2018-08-16T08:05:01.284Z,52.08
2018-08-16T08:07:31.180Z,51.87
2018-08-16T08:10:00.850Z,52.07
2018-08-16T08:12:30.778Z,49.95
2018-08-16T08:15:00.488Z,47.61
2018-08-16T08:17:30.462Z,44.59
2018-08-16T08:20:02.288Z,43.05
2018-08-16T08:22:32.303Z,42.49
2018-08-16T08:25:02.026Z,42.69
2018-08-16T08:27:32.079Z,39.91
2018-08-16T08:30:02.364Z,38.18
2018-08-16T08:32:34.556Z,36.19
2018-08-16T08:35:04.922Z,36.58
2018-08-16T08:37:46.934Z,35.06
2018-08-16T08:40:16.872Z,34.30
2018-08-16T08:42:48.290Z,35.45
2018-08-16T08:45:23.081Z,33.24
2018-08-16T08:47:57.688Z,33.38
2018-08-16T08:50:27.761Z,32.00
2018-08-16T08:53:08.352Z,31.81
2018-08-16T08:55:51.239Z,31.46
2018-08-16T08:58:31.784Z,30.11
2018-08-16T09:01:01.296Z,29.58
2018-08-16T09:03:31.803Z,30.59
2018-08-16T09:06:01.421Z,30.27
2018-08-16T09:08:31.117Z,29.64
2018-08-16T09:11:16.108Z,29.52
2018-08-16T09:13:59.133Z,29.82
2018-08-16T09:16:30.687Z,29.68
2018-08-16T09:19:00.591Z,29.19
2018-08-16T09:21:30.976Z,27.07
2018-08-16T09:24:00.722Z,27.23
2018-08-16T09:26:35.910Z,27.17
2018-08-16T09:31:18.832Z,25.40
2018-08-16T09:34:01.695Z,25.00
2018-08-16T09:37:30.420Z,23.69
2018-08-16T09:40:01.324Z,23.14
2018-08-16T09:42:31.176Z,23.41
2018-08-16T09:45:11.771Z,24.82
2018-08-16T09:47:54.523Z,25.00
2018-08-16T09:50:24.139Z,22.95
2018-08-16T09:52:54.213Z,25.16
2018-08-16T09:55:27.757Z,25.64
2018-08-16T09:57:58.655Z,25.69
2018-08-16T10:00:34.117Z,24.64
2018-08-16T10:03:03.904Z,24.02
2018-08-16T10:05:34.111Z,24.85
2018-08-16T10:08:04.093Z,24.58
2018-08-16T10:10:34.201Z,24.94
2018-08-16T10:13:03.979Z,23.67
2018-08-16T10:15:33.795Z,23.62
2018-08-16T10:18:03.609Z,23.04
2018-08-16T10:20:33.699Z,23.48
2018-08-16T10:23:03.692Z,25.21
2018-08-16T10:25:33.364Z,25.98
2018-08-16T10:28:03.045Z,26.25
2018-08-16T10:30:33.208Z,26.60
2018-08-16T10:33:03.623Z,27.04
2018-08-16T10:35:33.524Z,29.24
2018-08-16T10:38:04.010Z,30.34
2018-08-16T10:40:34.540Z,30.16
2018-08-16T10:43:05.321Z,30.07
2018-08-16T10:45:35.382Z,30.73
2018-08-16T10:48:04.998Z,31.28
2018-08-16T10:50:36.804Z,32.79
2018-08-16T10:53:06.540Z,31.99
2018-08-16T10:55:36.434Z,31.70
2018-08-16T10:58:08.555Z,31.32
2018-08-16T11:00:42.542Z,30.65
2018-08-16T11:03:12.329Z,31.53
2018-08-16T11:05:42.335Z,29.96
2018-08-16T11:08:12.086Z,30.21
2018-08-16T11:10:42.555Z,29.21
2018-08-16T11:13:12.549Z,30.08
2018-08-16T11:18:16.859Z,30.07
2018-08-16T11:20:46.717Z,31.39
2018-08-16T11:23:18.155Z,30.72
2018-08-16T11:25:47.831Z,31.88
2018-08-16T11:28:17.575Z,31.51
2018-08-16T11:30:47.776Z,31.40
2018-08-16T11:33:18.053Z,30.36
2018-08-16T11:35:55.673Z,29.52
2018-08-16T11:38:25.439Z,28.55
2018-08-16T11:40:55.440Z,28.97
2018-08-16T11:43:25.420Z,30.30
2018-08-16T11:45:55.820Z,29.20
2018-08-16T11:48:30.540Z,29.96
2018-08-16T11:51:00.458Z,30.35
2018-08-16T11:53:30.384Z,29.63
2018-08-16T11:56:00.104Z,29.72
2018-08-16T11:58:34.007Z,30.13
2018-08-16T12:01:03.741Z,30.96
2018-08-16T12:06:13.375Z,29.45
2018-08-16T12:08:44.388Z,29.60
2018-08-16T12:11:18.691Z,29.90
2018-08-16T12:13:48.600Z,28.78
2018-08-16T12:16:18.906Z,29.13
2018-08-16T12:18:49.356Z,29.59
2018-08-16T12:21:20.033Z,29.51
2018-08-16T12:23:52.539Z,30.05
2018-08-16T12:26:22.495Z,30.15
2018-08-16T12:28:52.124Z,30.20
2018-08-16T12:31:22.430Z,29.90
2018-08-16T12:33:52.766Z,29.96
2018-08-16T12:36:28.032Z,29.40
2018-08-16T12:38:58.142Z,29.31
2018-08-16T12:41:28.216Z,29.87
2018-08-16T12:43:58.182Z,29.92
2018-08-16T12:46:28.161Z,29.84
2018-08-16T12:48:57.938Z,30.26
2018-08-16T12:51:29.320Z,28.57
2018-08-16T12:54:02.687Z,28.31
2018-08-16T12:56:37.067Z,28.54
2018-08-16T12:59:07.364Z,27.91
2018-08-16T13:01:39.968Z,28.85
2018-08-16T13:04:37.928Z,28.53
2018-08-16T13:07:07.631Z,28.71
2018-08-16T13:09:56.291Z,28.81
2018-08-16T13:12:30.047Z,27.74
2018-08-16T13:15:02.955Z,27.76
2018-08-16T13:17:34.150Z,26.10
2018-08-16T13:20:04.232Z,25.77
2018-08-16T13:22:39.013Z,25.90
2018-08-16T13:25:09.440Z,26.60
2018-08-16T13:27:39.552Z,26.01
2018-08-16T13:30:09.723Z,26.36
2018-08-16T13:32:40.075Z,26.22
2018-08-16T13:35:09.837Z,26.12
2018-08-16T13:37:41.955Z,26.75
2018-08-16T13:40:12.143Z,24.54
2018-08-16T13:42:41.952Z,23.71
2018-08-16T13:45:12.405Z,19.80
2018-08-16T13:47:42.653Z,17.96
2018-08-16T13:50:13.174Z,16.68
2018-08-16T13:52:51.387Z,16.63
2018-08-16T13:55:21.824Z,14.78
2018-08-16T13:57:51.450Z,15.29
2018-08-16T14:00:31.262Z,15.06
2018-08-16T14:03:03.289Z,14.46
2018-08-16T14:05:33.317Z,13.41
2018-08-16T14:08:04.966Z,13.62
2018-08-16T14:10:35.359Z,13.57
2018-08-16T14:13:10.205Z,15.25
2018-08-16T14:15:40.908Z,15.21
2018-08-16T14:18:16.942Z,14.15
2018-08-16T14:20:54.736Z,13.77
2018-08-16T14:23:27.602Z,16.24
2018-08-16T14:26:00.105Z,16.99
2018-08-16T14:28:30.233Z,18.40
2018-08-16T14:31:05.074Z,17.73
2018-08-16T14:33:39.749Z,16.91
2018-08-16T14:36:09.724Z,15.48
2018-08-16T14:38:39.904Z,15.91
2018-08-16T14:41:09.701Z,14.36
2018-08-16T14:43:39.617Z,13.48
2018-08-16T14:46:10.116Z,14.38
2018-08-16T14:48:42.583Z,14.81
2018-08-16T14:51:12.430Z,15.39
2018-08-16T14:53:42.147Z,15.93
2018-08-16T14:56:12.525Z,16.62
2018-08-16T14:58:42.581Z,17.63
2018-08-16T15:01:13.446Z,16.46
2018-08-16T15:10:23.747Z,17.34
2018-08-16T15:12:53.951Z,14.87
2018-08-16T15:18:17.351Z,19.32
2018-08-16T15:20:47.678Z,21.18
2018-08-16T15:23:18.643Z,21.74
2018-08-16T15:25:48.250Z,20.62
2018-08-16T15:28:19.143Z,21.06
2018-08-16T15:30:56.129Z,22.29
2018-08-16T15:33:26.448Z,24.49
2018-08-16T15:35:56.840Z,23.65
2018-08-16T15:38:27.150Z,25.31
2018-08-16T15:41:00.693Z,22.45
2018-08-16T15:43:34.864Z,18.78
2018-08-16T15:46:05.075Z,17.96
2018-08-16T15:48:35.379Z,17.19
2018-08-16T15:51:05.455Z,16.46
2018-08-16T15:53:35.304Z,18.22
2018-08-16T15:56:05.235Z,16.47
2018-08-16T15:58:35.486Z,16.99
2018-08-16T16:01:05.224Z,18.24
2018-08-16T16:03:35.556Z,19.09
2018-08-16T16:06:05.616Z,18.50
2018-08-16T16:08:37.310Z,19.90
2018-08-16T16:11:09.211Z,19.33
2018-08-16T16:13:40.577Z,19.20
2018-08-16T16:16:10.751Z,20.00
2018-08-16T16:18:40.610Z,21.63
2018-08-16T16:21:10.363Z,23.91
2018-08-16T16:23:40.381Z,25.25
2018-08-16T16:26:10.350Z,26.55
2018-08-16T16:28:40.176Z,27.78
2018-08-16T16:31:10.217Z,27.52
2018-08-16T16:33:42.634Z,28.23
2018-08-16T16:36:20.028Z,30.15
2018-08-16T16:38:49.714Z,30.16
2018-08-16T16:41:22.374Z,28.68
2018-08-16T16:43:52.333Z,28.95
2018-08-16T16:46:26.979Z,27.94
2018-08-16T16:48:57.054Z,28.38
2018-08-16T16:54:22.298Z,30.27
2018-08-16T16:56:53.118Z,29.85
2018-08-16T16:59:23.551Z,30.20
2018-08-16T17:02:01.453Z,30.50
2018-08-16T17:04:31.840Z,31.40
2018-08-16T17:07:06.441Z,32.64
2018-08-16T17:09:37.038Z,33.16
2018-08-16T17:12:13.391Z,32.68
2018-08-16T17:14:43.307Z,33.37
2018-08-16T17:17:14.924Z,33.37
2018-08-16T17:22:43.439Z,32.62
2018-08-16T17:25:14.622Z,34.39
2018-08-16T17:29:59.911Z,34.17
2018-08-16T17:32:30.794Z,35.14
2018-08-16T17:35:01.175Z,34.66
2018-08-16T17:37:32.954Z,36.44
2018-08-16T17:40:05.847Z,34.86
2018-08-16T17:42:37.833Z,35.21
2018-08-16T17:45:10.030Z,35.99
2018-08-16T17:47:42.657Z,36.99
2018-08-16T17:50:13.299Z,36.45
2018-08-16T17:52:43.823Z,37.13
2018-08-16T17:55:19.386Z,38.59
2018-08-16T17:57:49.348Z,38.58
2018-08-16T18:00:20.728Z,39.68
2018-08-16T18:02:53.654Z,40.31
2018-08-16T18:05:26.153Z,40.02
2018-08-16T18:07:56.029Z,40.12
2018-08-16T18:10:32.043Z,40.31
2018-08-16T18:13:03.204Z,40.77
2018-08-16T18:15:33.362Z,41.53
2018-08-16T18:18:06.881Z,41.57
2018-08-16T18:20:36.804Z,41.65
2018-08-16T18:23:06.856Z,41.84
2018-08-16T18:25:37.397Z,42.99
2018-08-16T18:28:46.314Z,42.94
2018-08-16T18:31:16.622Z,43.75
2018-08-16T18:33:47.097Z,43.92
2018-08-16T18:36:17.399Z,44.42
2018-08-16T18:38:47.599Z,44.87
2018-08-16T18:41:17.395Z,45.78
2018-08-16T18:43:52.586Z,46.13
2018-08-16T18:46:24.411Z,46.65
2018-08-16T18:48:56.977Z,46.98
2018-08-16T18:51:28.108Z,46.73
2018-08-16T18:53:59.869Z,46.53
2018-08-16T18:56:29.593Z,46.98
2018-08-16T18:59:00.217Z,47.50
2018-08-16T19:01:31.013Z,48.16
2018-08-16T19:04:28.579Z,47.91
2018-08-16T19:06:58.624Z,48.88
2018-08-16T19:09:28.590Z,49.07
2018-08-16T19:11:59.026Z,49.03
2018-08-16T19:14:30.585Z,49.43
2018-08-16T19:17:00.595Z,49.59
2018-08-16T19:19:31.616Z,49.72
2018-08-16T19:22:02.383Z,49.99
2018-08-16T19:24:34.590Z,50.60
2018-08-16T19:27:05.287Z,51.29
2018-08-16T19:29:38.530Z,51.35
2018-08-16T19:32:09.136Z,51.85
2018-08-16T19:34:39.930Z,51.69
2018-08-16T19:37:11.346Z,52.18
2018-08-16T19:39:42.322Z,52.50
2018-08-16T19:42:13.406Z,52.17
2018-08-16T19:44:47.141Z,52.59
2018-08-16T19:47:26.056Z,53.02
2018-08-16T19:49:58.862Z,53.21
2018-08-16T19:52:29.198Z,53.21
2018-08-16T19:54:59.834Z,53.46
2018-08-16T19:57:31.354Z,53.79
2018-08-16T20:00:01.653Z,54.00
2018-08-16T20:02:32.100Z,53.55
2018-08-16T20:05:02.675Z,53.58
2018-08-16T20:07:32.956Z,53.58
2018-08-16T20:10:03.510Z,54.19
2018-08-16T20:12:43.306Z,54.79
2018-08-16T20:15:14.086Z,55.52
2018-08-16T20:17:44.327Z,55.03
2018-08-16T20:20:14.431Z,55.67
2018-08-16T20:23:59.174Z,55.35
2018-08-16T20:26:30.077Z,55.97
2018-08-16T20:29:02.516Z,56.06
2018-08-16T20:31:33.776Z,55.41
2018-08-16T20:34:04.076Z,54.82
2018-08-16T20:36:36.128Z,55.08
2018-08-16T20:39:10.559Z,55.59
2018-08-16T20:41:41.210Z,55.12
2018-08-16T20:44:11.068Z,55.88
2018-08-16T20:46:43.851Z,55.80
2018-08-16T20:49:17.561Z,56.38
2018-08-16T20:51:50.641Z,56.79
2018-08-16T20:54:24.847Z,56.72
2018-08-16T20:56:54.679Z,57.18
2018-08-16T20:59:25.143Z,57.88
2018-08-16T21:02:03.504Z,58.83
2018-08-16T21:04:33.917Z,59.33
2018-08-16T21:07:15.138Z,60.04
2018-08-16T21:09:45.099Z,60.11
2018-08-16T21:12:16.480Z,60.30
2018-08-16T21:14:46.919Z,60.49
2018-08-16T21:17:16.647Z,59.91
2018-08-16T21:19:46.826Z,59.89
2018-08-16T21:22:16.748Z,60.42
2018-08-16T21:24:48.007Z,60.81
2018-08-16T21:27:18.727Z,60.52
2018-08-16T21:29:56.970Z,61.63
2018-08-16T21:32:27.627Z,62.02
2018-08-16T21:35:01.054Z,62.29
2018-08-16T21:37:40.645Z,62.53
2018-08-16T21:40:12.178Z,63.07
2018-08-16T21:42:43.949Z,63.31
2018-08-16T21:45:15.379Z,63.61
2018-08-16T21:47:52.321Z,63.64
2018-08-16T21:50:22.383Z,64.25
2018-08-16T21:52:53.185Z,64.45
2018-08-16T21:55:24.422Z,64.79
2018-08-16T21:57:56.613Z,64.70
2018-08-16T22:00:39.498Z,64.62
2018-08-16T22:03:20.110Z,65.28
2018-08-16T22:06:12.964Z,65.49
2018-08-16T22:08:53.764Z,65.74
2018-08-16T22:11:34.813Z,65.66
2018-08-16T22:14:12.242Z,66.23
2018-08-16T22:19:26.375Z,65.95
2018-08-16T22:21:58.438Z,66.47
2018-08-16T22:24:30.338Z,66.73
2018-08-16T22:27:08.033Z,66.71
2018-08-16T22:29:38.992Z,67.33
2018-08-16T22:32:12.438Z,67.43
2018-08-16T22:34:59.627Z,67.42
2018-08-16T22:37:30.170Z,67.89
2018-08-16T22:40:04.288Z,68.06
2018-08-16T22:42:40.426Z,68.79
2018-08-16T22:45:12.689Z,68.72
2018-08-16T22:47:44.444Z,68.46
2018-08-16T22:50:18.671Z,69.10
2018-08-16T22:53:05.902Z,68.78
2018-08-16T22:55:43.920Z,68.96
2018-08-16T22:58:16.526Z,69.53
2018-08-16T23:00:48.249Z,69.18
2018-08-16T23:03:21.533Z,69.25
2018-08-16T23:05:57.927Z,69.68
2018-08-16T23:08:34.232Z,69.59
2018-08-16T23:11:07.562Z,69.54
2018-08-16T23:13:41.947Z,69.82
2018-08-16T23:16:17.063Z,69.60
2018-08-16T23:18:49.123Z,69.95
2018-08-16T23:21:28.474Z,70.10
2018-08-16T23:24:04.843Z,70.20
2018-08-16T23:26:37.002Z,70.71
2018-08-16T23:29:12.813Z,70.42
2018-08-16T23:31:43.870Z,70.86
2018-08-16T23:34:15.800Z,70.70
2018-08-16T23:36:47.488Z,70.68
2018-08-16T23:39:27.982Z,70.77
2018-08-16T23:42:01.082Z,70.92
2018-08-16T23:44:34.423Z,71.07
2018-08-16T23:47:11.554Z,70.88
2018-08-16T23:49:45.720Z,71.16
2018-08-16T23:52:17.483Z,71.48
2018-08-16T23:54:50.933Z,71.28
2018-08-16T23:57:25.761Z,71.87
2018-08-16T23:59:59.773Z,71.33
